Time,TemperatureF,DewpointF,PressureIn,WindDirection,WindDirectionDegrees,WindSpeedMPH,WindSpeedGustMPH,Humidity,HourlyPrecipIn,Conditions,Clouds,dailyrainin,SolarRadiationWatts/m^2,SoftwareType,DateUTC
2013-03-21 00:02:00,43.0,34.0,-100.00,North,7,1.0,14.0,69,0.00,,,0.00,0.000000,,2013-03-21 07:02:00,
2013-03-21 00:12:00,43.0,34.0,-100.00,North,7,1.0,14.0,69,0.00,,,0.00,0.000000,,2013-03-21 07:12:00,
2013-03-21 00:22:00,43.0,34.0,-100.00,North,7,1.0,14.0,69,0.00,,,0.00,0.000000,,2013-03-21 07:22:00,
2013-03-21 00:32:00,43.0,34.0,-100.00,North,7,1.0,14.0,69,0.00,,,0.00,0.000000,,2013-03-21 07:32:00,
2013-03-21 01:02:00,39.0,32.0,-100.00,NNE,29,0.0,10.0,76,0.00,,,-99.99,0.000000,,2013-03-21 08:02:00,
2013-03-21 01:12:00,39.0,32.0,-100.00,NNE,29,0.0,10.0,76,0.00,,,-99.99,0.000000,,2013-03-21 08:12:00,
2013-03-21 01:22:00,39.0,32.0,-100.00,NNE,29,0.0,10.0,76,0.00,,,-99.99,0.000000,,2013-03-21 08:22:00,
2013-03-21 01:32:00,39.0,32.0,-100.00,NNE,29,0.0,10.0,76,0.00,,,-99.99,0.000000,,2013-03-21 08:32:00,
2013-03-21 02:02:00,36.0,31.0,-100.00,NNW,330,0.0,6.0,81,0.00,,,0.00,0.000000,,2013-03-21 09:02:00,
2013-03-21 02:33:00,36.0,31.0,-100.00,NNW,330,0.0,6.0,81,0.00,,,0.00,0.000000,,2013-03-21 09:33:00,
2013-03-21 03:02:00,40.0,31.0,-100.00,SSE,164,3.0,8.0,70,-99.99,,,0.00,0.000000,,2013-03-21 10:02:00,
2013-03-21 03:12:00,40.0,31.0,-100.00,SSE,164,3.0,8.0,70,-99.99,,,0.00,0.000000,,2013-03-21 10:12:00,
2013-03-21 03:22:00,40.0,31.0,-100.00,SSE,164,3.0,8.0,70,-99.99,,,0.00,0.000000,,2013-03-21 10:22:00,
2013-03-21 03:32:00,40.0,31.0,-100.00,SSE,164,3.0,8.0,70,-99.99,,,0.00,0.000000,,2013-03-21 10:32:00,
2013-03-21 04:02:00,37.0,32.0,-100.00,NW,316,0.0,10.0,81,0.00,,,0.00,0.000000,,2013-03-21 11:02:00,
2013-03-21 04:12:00,37.0,32.0,-100.00,NW,316,0.0,10.0,81,0.00,,,0.00,0.000000,,2013-03-21 11:12:00,
2013-03-21 04:22:00,37.0,32.0,-100.00,NW,316,0.0,10.0,81,0.00,,,0.00,0.000000,,2013-03-21 11:22:00,
2013-03-21 04:32:00,37.0,32.0,-100.00,NW,316,0.0,10.0,81,0.00,,,0.00,0.000000,,2013-03-21 11:32:00,
2013-03-21 05:02:00,34.0,28.0,-100.00,North,359,0.0,7.0,78,0.00,,,0.00,0.000000,,2013-03-21 12:02:00,
2013-03-21 05:12:00,34.0,28.0,-100.00,North,359,0.0,7.0,78,0.00,,,0.00,0.000000,,2013-03-21 12:12:00,
2013-03-21 05:22:00,34.0,28.0,-100.00,North,359,0.0,7.0,78,0.00,,,0.00,0.000000,,2013-03-21 12:22:00,
2013-03-21 05:32:00,34.0,28.0,-100.00,North,359,0.0,7.0,78,0.00,,,0.00,0.000000,,2013-03-21 12:32:00,
2013-03-21 06:02:00,33.0,19.0,-100.00,NNE,28,0.0,5.0,57,0.00,,,0.00,0.000000,,2013-03-21 13:02:00,
2013-03-21 06:12:00,33.0,19.0,-100.00,NNE,28,0.0,5.0,57,0.00,,,0.00,0.000000,,2013-03-21 13:12:00,
2013-03-21 06:22:00,33.0,19.0,-100.00,NNE,28,0.0,5.0,57,0.00,,,0.00,0.000000,,2013-03-21 13:22:00,
2013-03-21 06:32:00,33.0,19.0,-100.00,NNE,28,0.0,5.0,57,0.00,,,0.00,0.000000,,2013-03-21 13:32:00,
2013-03-21 07:02:00,36.0,8.0,-100.00,North,356,0.0,8.0,30,0.00,,,0.00,0.000000,,2013-03-21 14:02:00,
2013-03-21 07:12:00,36.0,8.0,-100.00,North,356,0.0,8.0,30,0.00,,,0.00,0.000000,,2013-03-21 14:12:00,
2013-03-21 07:21:00,36.0,8.0,-100.00,North,356,0.0,8.0,30,0.00,,,0.00,0.000000,,2013-03-21 14:21:00,
2013-03-21 07:32:00,36.0,8.0,-100.00,North,356,0.0,8.0,30,0.00,,,0.00,0.000000,,2013-03-21 14:32:00,
2013-03-21 08:03:00,34.0,12.0,-100.00,NE,34,0.0,4.0,40,0.00,,,0.00,19.000000,,2013-03-21 15:03:00,
2013-03-21 08:12:00,34.0,12.0,-100.00,NE,34,0.0,4.0,40,0.00,,,0.00,19.000000,,2013-03-21 15:12:00,
2013-03-21 08:22:00,34.0,12.0,-100.00,NE,34,0.0,4.0,40,0.00,,,0.00,19.000000,,2013-03-21 15:22:00,
2013-03-21 08:32:00,34.0,12.0,-100.00,NE,34,0.0,4.0,40,0.00,,,0.00,19.000000,,2013-03-21 15:32:00,
2013-03-21 09:03:00,38.0,19.0,-100.00,SSE,156,0.0,4.0,45,0.00,,,0.00,64.000000,,2013-03-21 16:03:00,
2013-03-21 09:12:00,38.0,19.0,-100.00,SSE,156,0.0,4.0,45,0.00,,,0.00,64.000000,,2013-03-21 16:12:00,
2013-03-21 09:22:00,38.0,19.0,-100.00,SSE,156,0.0,4.0,45,0.00,,,0.00,64.000000,,2013-03-21 16:22:00,
2013-03-21 09:32:00,38.0,19.0,-100.00,SSE,156,0.0,4.0,45,0.00,,,0.00,64.000000,,2013-03-21 16:32:00,
2013-03-21 10:02:00,52.0,16.0,-100.00,South,174,1.0,7.0,24,-99.99,,,0.00,318.000000,,2013-03-21 17:02:00,
2013-03-21 10:12:00,52.0,16.0,-100.00,South,174,1.0,7.0,24,-99.99,,,0.00,318.000000,,2013-03-21 17:12:00,
2013-03-21 10:23:00,52.0,16.0,-100.00,South,174,1.0,7.0,24,-99.99,,,0.00,318.000000,,2013-03-21 17:23:00,
2013-03-21 10:32:00,52.0,16.0,-100.00,South,174,1.0,7.0,24,-99.99,,,0.00,318.000000,,2013-03-21 17:32:00,
2013-03-21 11:02:00,56.0,2.0,-100.00,SSW,194,4.0,8.0,11,0.00,,,0.00,775.000000,,2013-03-21 18:02:00,
2013-03-21 11:12:00,56.0,2.0,-100.00,SSW,194,4.0,8.0,11,0.00,,,0.00,775.000000,,2013-03-21 18:12:00,
2013-03-21 11:22:00,56.0,2.0,-100.00,SSW,194,4.0,8.0,11,0.00,,,0.00,775.000000,,2013-03-21 18:22:00,
2013-03-21 11:32:00,56.0,2.0,-100.00,SSW,194,4.0,8.0,11,0.00,,,0.00,775.000000,,2013-03-21 18:32:00,
2013-03-21 12:02:00,61.0,-4.0,-100.00,South,180,4.0,9.0,7,0.00,,,0.00,971.000000,,2013-03-21 19:02:00,
2013-03-21 13:02:00,65.0,2.0,-100.00,East,91,3.0,11.0,8,0.00,,,0.00,1035.000000,,2013-03-21 20:02:00,
2013-03-21 14:02:00,65.0,2.0,-100.00,SSW,194,5.0,10.0,8,0.00,,,0.00,1115.000000,,2013-03-21 21:02:00,
2013-03-21 15:02:00,62.0,5.0,-100.00,South,190,6.0,13.0,10,0.00,,,0.00,1067.000000,,2013-03-21 22:02:00,
2013-03-21 16:02:00,61.0,10.0,-100.00,SSW,195,5.0,12.0,13,0.00,,,0.00,908.000000,,2013-03-21 23:02:00,
2013-03-21 17:02:00,59.0,16.0,-100.00,SSW,195,5.0,13.0,18,0.00,,,0.00,731.000000,,2013-03-22 00:02:00,
2013-03-21 18:02:00,54.0,23.0,-100.00,SSW,200,4.0,11.0,30,0.00,,,0.00,142.000000,,2013-03-22 01:02:00,
2013-03-21 18:12:00,54.0,23.0,-100.00,SSW,200,4.0,11.0,30,0.00,,,0.00,142.000000,,2013-03-22 01:12:00,
2013-03-21 18:22:00,54.0,23.0,-100.00,SSW,200,4.0,11.0,30,0.00,,,0.00,142.000000,,2013-03-22 01:22:00,
2013-03-21 18:32:00,54.0,23.0,-100.00,SSW,200,4.0,11.0,30,0.00,,,0.00,142.000000,,2013-03-22 01:32:00,
2013-03-21 19:02:00,50.0,31.0,-100.00,SSW,199,1.0,9.0,48,0.00,,,0.00,37.000000,,2013-03-22 02:02:00,
2013-03-21 19:12:00,50.0,31.0,-100.00,SSW,199,1.0,9.0,48,0.00,,,0.00,37.000000,,2013-03-22 02:12:00,
2013-03-21 19:22:00,50.0,31.0,-100.00,SSW,199,1.0,9.0,48,0.00,,,0.00,37.000000,,2013-03-22 02:22:00,
2013-03-21 19:32:00,50.0,31.0,-100.00,SSW,199,1.0,9.0,48,0.00,,,0.00,37.000000,,2013-03-22 02:32:00,
2013-03-21 20:02:00,41.0,27.0,-100.00,North,10,0.0,6.0,56,0.00,,,0.00,6.000000,,2013-03-22 03:02:00,
2013-03-21 20:12:00,41.0,27.0,-100.00,North,10,0.0,6.0,56,0.00,,,0.00,6.000000,,2013-03-22 03:12:00,
2013-03-21 20:21:00,41.0,27.0,-100.00,North,10,0.0,6.0,56,0.00,,,0.00,6.000000,,2013-03-22 03:21:00,
2013-03-21 20:32:00,41.0,27.0,-100.00,North,10,0.0,6.0,56,0.00,,,0.00,6.000000,,2013-03-22 03:32:00,
2013-03-21 21:03:00,37.0,26.0,-100.00,NNE,12,1.0,4.0,63,0.00,,,0.00,0.000000,,2013-03-22 04:03:00,
2013-03-21 21:12:00,37.0,26.0,-100.00,NNE,12,1.0,4.0,63,0.00,,,0.00,0.000000,,2013-03-22 04:12:00,
2013-03-21 21:22:00,37.0,26.0,-100.00,NNE,12,1.0,4.0,63,0.00,,,0.00,0.000000,,2013-03-22 04:22:00,
2013-03-21 21:32:00,37.0,26.0,-100.00,NNE,12,1.0,4.0,63,0.00,,,0.00,0.000000,,2013-03-22 04:32:00,
2013-03-21 22:02:00,35.0,24.0,-100.00,North,5,0.0,4.0,63,0.00,,,0.00,0.000000,,2013-03-22 05:02:00,
2013-03-21 22:12:00,35.0,24.0,-100.00,North,5,0.0,4.0,63,0.00,,,0.00,0.000000,,2013-03-22 05:12:00,
2013-03-21 22:22:00,35.0,24.0,-100.00,North,5,0.0,4.0,63,0.00,,,0.00,0.000000,,2013-03-22 05:22:00,
2013-03-21 22:32:00,35.0,24.0,-100.00,North,5,0.0,4.0,63,0.00,,,0.00,0.000000,,2013-03-22 05:32:00,
2013-03-21 23:02:00,34.0,23.0,-100.00,North,11,0.0,4.0,63,0.00,,,0.00,0.000000,,2013-03-22 06:02:00,
2013-03-21 23:12:00,34.0,23.0,-100.00,North,11,0.0,4.0,63,0.00,,,0.00,0.000000,,2013-03-22 06:12:00,
2013-03-21 23:22:00,34.0,23.0,-100.00,North,11,0.0,4.0,63,0.00,,,0.00,0.000000,,2013-03-22 06:22:00,
2013-03-21 23:32:00,34.0,23.0,-100.00,North,11,0.0,4.0,63,0.00,,,0.00,0.000000,,2013-03-22 06:32:00,